createdAt,value
2024-03-24T00:00:01.935Z,98.86
2024-03-24T00:01:01.959Z,98.76
2024-03-24T00:02:01.907Z,98.66
2024-03-24T00:03:01.907Z,98.55
2024-03-24T00:04:02.160Z,98.66
2024-03-24T00:05:01.894Z,98.76
2024-03-24T00:06:01.890Z,98.66
2024-03-24T00:07:01.865Z,98.76
2024-03-24T00:08:01.845Z,98.97
2024-03-24T00:09:01.849Z,98.35
2024-03-24T00:10:01.888Z,98.86
2024-03-24T00:11:02.061Z,99.59
2024-03-24T00:12:01.808Z,99.28
2024-03-24T00:13:01.831Z,98.86
2024-03-24T00:14:01.879Z,99.28
2024-03-24T00:15:01.988Z,99.18
2024-03-24T00:16:01.780Z,98.66
2024-03-24T00:17:02.111Z,98.76
2024-03-24T00:18:01.740Z,98.97
2024-03-24T00:19:01.733Z,99.18
2024-03-24T00:20:01.818Z,98.66
2024-03-24T00:21:01.702Z,99.07
2024-03-24T00:22:01.747Z,98.35
2024-03-24T00:23:01.708Z,98.97
2024-03-24T00:24:01.684Z,99.28
2024-03-24T00:25:01.664Z,98.55
2024-03-24T00:26:01.684Z,98.86
2024-03-24T00:27:01.910Z,98.97
2024-03-24T00:28:01.646Z,98.76
2024-03-24T00:29:01.639Z,98.76
2024-03-24T00:30:01.640Z,98.76
2024-03-24T00:31:01.606Z,99.18
2024-03-24T00:32:01.595Z,98.45
2024-03-24T00:33:01.804Z,99.18
2024-03-24T00:34:01.570Z,99.07
2024-03-24T00:35:01.613Z,99.33
2024-03-24T00:36:01.806Z,98.76
2024-03-24T00:37:01.567Z,98.97
2024-03-24T00:38:01.618Z,99.33
2024-03-24T00:39:01.516Z,99.18
2024-03-24T00:40:01.540Z,99.07
2024-03-24T00:41:01.509Z,99.18
2024-03-24T00:42:01.523Z,99.49
2024-03-24T00:43:01.487Z,99.80
2024-03-24T00:44:01.467Z,99.28
2024-03-24T00:45:01.615Z,99.28
2024-03-24T00:46:01.451Z,98.71
2024-03-24T00:47:01.446Z,99.28
2024-03-24T00:48:01.429Z,99.12
2024-03-24T00:49:01.419Z,99.28
2024-03-24T00:50:01.407Z,99.18
2024-03-24T00:51:01.418Z,99.33
2024-03-24T00:52:01.384Z,99.54
2024-03-24T00:53:01.391Z,99.59
2024-03-24T00:54:01.362Z,98.76
2024-03-24T00:55:01.362Z,99.95
2024-03-24T00:56:01.351Z,98.81
2024-03-24T00:57:01.352Z,98.97
2024-03-24T00:58:01.326Z,99.38
2024-03-24T00:59:01.316Z,99.54
2024-03-24T01:00:01.430Z,99.64
2024-03-24T01:01:01.565Z,99.59
2024-03-24T01:02:01.286Z,99.38
2024-03-24T01:03:01.290Z,99.38
2024-03-24T01:04:01.282Z,99.91
2024-03-24T01:05:01.293Z,99.80
2024-03-24T01:06:01.394Z,99.18
2024-03-24T01:07:01.221Z,99.85
2024-03-24T01:08:01.517Z,99.70
2024-03-24T01:09:01.205Z,99.49
2024-03-24T01:10:01.316Z,99.70
2024-03-24T01:11:01.178Z,99.59
2024-03-24T01:12:01.170Z,99.95
2024-03-24T01:13:01.165Z,99.59
2024-03-24T01:14:01.153Z,99.59
2024-03-24T01:15:01.148Z,99.59
2024-03-24T01:16:01.344Z,99.28
2024-03-24T01:17:01.126Z,99.59
2024-03-24T01:18:01.123Z,99.49
2024-03-24T01:19:01.111Z,99.59
2024-03-24T01:20:01.090Z,99.28
2024-03-24T01:21:01.170Z,99.91
2024-03-24T01:22:01.061Z,99.80
2024-03-24T01:23:01.094Z,99.99
2024-03-24T01:24:01.045Z,99.99
2024-03-24T01:25:01.124Z,99.70
2024-03-24T01:26:01.038Z,99.59
2024-03-24T01:27:01.013Z,99.59
2024-03-24T01:28:01.002Z,99.59
2024-03-24T01:29:00.995Z,99.99
2024-03-24T01:30:00.979Z,99.99
2024-03-24T01:31:00.984Z,99.59
2024-03-24T01:32:00.962Z,99.91
2024-03-24T01:33:01.252Z,99.65
2024-03-24T01:34:00.946Z,99.59
2024-03-24T01:35:00.934Z,99.34
2024-03-24T01:36:00.910Z,99.99
2024-03-24T01:37:00.902Z,99.59
2024-03-24T01:38:00.891Z,99.99
2024-03-24T01:39:00.976Z,99.38
2024-03-24T01:40:00.876Z,99.38
2024-03-24T01:41:00.877Z,99.70
2024-03-24T01:42:00.848Z,99.59
2024-03-24T01:43:00.851Z,99.38
2024-03-24T01:44:01.111Z,99.59
2024-03-24T01:45:00.833Z,99.59
2024-03-24T01:46:00.811Z,99.76
2024-03-24T01:47:00.856Z,99.44
2024-03-24T01:48:00.798Z,99.34
2024-03-24T01:49:00.782Z,99.55
2024-03-24T01:50:01.017Z,99.70
2024-03-24T01:51:00.757Z,99.65
2024-03-24T01:52:00.741Z,99.80
2024-03-24T01:53:00.768Z,99.99
2024-03-24T01:54:00.729Z,99.34
2024-03-24T01:55:00.997Z,99.99
2024-03-24T01:56:00.702Z,99.86
2024-03-24T01:57:00.693Z,99.96
2024-03-24T01:58:00.707Z,99.76
2024-03-24T01:59:00.685Z,99.44
2024-03-24T02:00:00.660Z,99.55
2024-03-24T02:01:00.719Z,99.44
2024-03-24T02:02:00.645Z,99.76
2024-03-24T02:03:00.843Z,99.44
2024-03-24T02:04:00.629Z,99.65
2024-03-24T02:05:00.650Z,99.65
2024-03-24T02:06:00.872Z,99.44
2024-03-24T02:07:00.754Z,99.24
2024-03-24T02:08:00.575Z,99.96
2024-03-24T02:09:00.866Z,99.86
2024-03-24T02:10:00.553Z,99.96
2024-03-24T02:11:00.571Z,99.76
2024-03-24T02:12:00.577Z,99.82
2024-03-24T02:13:00.530Z,99.86
2024-03-24T02:14:00.709Z,99.55
2024-03-24T02:15:00.526Z,99.71
2024-03-24T02:16:00.504Z,99.71
2024-03-24T02:17:00.487Z,99.61
2024-03-24T02:18:00.887Z,99.19
2024-03-24T02:19:00.469Z,99.99
2024-03-24T02:20:00.515Z,99.99
2024-03-24T02:21:00.476Z,99.99
2024-03-24T02:22:00.439Z,99.71
2024-03-24T02:23:00.423Z,99.92
2024-03-24T02:24:00.399Z,99.99
2024-03-24T02:25:00.415Z,99.99
2024-03-24T02:26:00.405Z,99.61
2024-03-24T02:27:00.399Z,99.99
2024-03-24T02:28:00.448Z,99.82
2024-03-24T02:29:00.417Z,99.92
2024-03-24T02:30:00.343Z,99.99
2024-03-24T02:31:00.337Z,99.99
2024-03-24T02:32:00.401Z,99.99
2024-03-24T02:33:00.319Z,99.99
2024-03-24T02:34:00.330Z,99.99
2024-03-24T02:35:00.299Z,99.99
2024-03-24T02:36:00.276Z,99.99
2024-03-24T02:37:00.270Z,99.99
2024-03-24T02:38:00.587Z,99.99
2024-03-24T02:39:00.248Z,99.99
2024-03-24T02:40:00.358Z,99.99
2024-03-24T02:41:00.232Z,99.99
2024-03-24T02:42:00.217Z,99.99
2024-03-24T02:43:00.232Z,99.99
2024-03-24T02:44:00.211Z,99.99
2024-03-24T02:45:00.231Z,99.99
2024-03-24T02:46:00.434Z,99.99
2024-03-24T02:47:00.163Z,99.99
2024-03-24T02:48:00.191Z,99.99
2024-03-24T02:49:00.162Z,99.99
2024-03-24T02:50:00.268Z,99.99
2024-03-24T02:51:00.167Z,99.99
2024-03-24T02:52:00.134Z,99.99
2024-03-24T02:53:00.115Z,99.99
2024-03-24T02:54:00.245Z,99.99
2024-03-24T02:55:00.181Z,99.99
2024-03-24T02:56:00.143Z,99.99
2024-03-24T02:57:00.102Z,99.99
2024-03-24T02:58:00.085Z,99.99
2024-03-24T02:59:00.050Z,99.99
2024-03-24T03:00:00.039Z,99.99
2024-03-24T03:01:00.021Z,99.99
2024-03-24T03:02:00.105Z,99.99
2024-03-24T03:03:00.008Z,99.99
2024-03-24T03:04:00.040Z,99.99
2024-03-24T03:04:59.972Z,99.99
2024-03-24T03:05:59.985Z,99.99
2024-03-24T03:06:59.958Z,99.99
2024-03-24T03:07:59.957Z,99.99
2024-03-24T03:09:00.021Z,99.99
2024-03-24T03:10:00.303Z,99.99
2024-03-24T03:10:59.939Z,99.99
2024-03-24T03:11:59.895Z,99.99
2024-03-24T03:13:00.067Z,99.99
2024-03-24T03:14:00.028Z,99.99
2024-03-24T03:15:00.105Z,99.99
2024-03-24T03:15:59.945Z,99.99
2024-03-24T03:16:59.906Z,99.99
2024-03-24T03:17:59.938Z,99.99
2024-03-24T03:18:59.881Z,99.99
2024-03-24T03:19:59.899Z,99.99
2024-03-24T03:20:59.854Z,99.99
2024-03-24T03:21:59.881Z,99.99
2024-03-24T03:22:59.863Z,99.99
2024-03-24T03:23:59.793Z,99.99
2024-03-24T03:24:59.781Z,99.99
2024-03-24T03:25:59.791Z,99.99
2024-03-24T03:26:59.985Z,99.99
2024-03-24T03:27:59.752Z,99.99
2024-03-24T03:28:59.722Z,99.99
2024-03-24T03:29:59.710Z,99.99
2024-03-24T03:30:59.701Z,99.99
2024-03-24T03:31:59.986Z,99.99
2024-03-24T03:32:59.687Z,99.99
2024-03-24T03:33:59.674Z,99.99
2024-03-24T03:34:59.658Z,99.99
2024-03-24T03:35:59.661Z,99.99
2024-03-24T03:36:59.638Z,99.99
2024-03-24T03:37:59.718Z,99.99
2024-03-24T03:38:59.642Z,99.99
2024-03-24T03:39:59.618Z,99.99
2024-03-24T03:40:59.595Z,99.99
2024-03-24T03:41:59.601Z,99.99
2024-03-24T03:42:59.581Z,99.99
2024-03-24T03:43:59.594Z,99.99
2024-03-24T03:44:59.549Z,99.99
2024-03-24T03:45:59.546Z,99.99
2024-03-24T03:46:59.531Z,99.99
2024-03-24T03:47:59.550Z,99.99
2024-03-24T03:48:59.511Z,99.99
2024-03-24T03:49:59.501Z,99.99
2024-03-24T03:50:59.502Z,99.99
2024-03-24T03:51:59.482Z,99.99
2024-03-24T03:52:59.790Z,99.99
2024-03-24T03:53:59.455Z,99.99
2024-03-24T03:54:59.446Z,99.99
2024-03-24T03:55:59.454Z,99.99
2024-03-24T03:56:59.422Z,99.99
2024-03-24T03:57:59.462Z,99.99
2024-03-24T03:58:59.403Z,99.99
2024-03-24T03:59:59.395Z,99.99
2024-03-24T04:00:59.384Z,99.99
2024-03-24T04:01:59.579Z,99.99
2024-03-24T04:02:59.373Z,99.99
2024-03-24T04:03:59.357Z,99.99
2024-03-24T04:04:59.340Z,99.99
2024-03-24T04:05:59.341Z,99.99
2024-03-24T04:06:59.358Z,99.99
2024-03-24T04:07:59.331Z,99.99
2024-03-24T04:08:59.310Z,99.99
2024-03-24T04:09:59.299Z,99.99
2024-03-24T04:10:59.292Z,99.99
2024-03-24T04:11:59.277Z,99.99
2024-03-24T04:12:59.298Z,99.99
2024-03-24T04:13:59.341Z,99.99
2024-03-24T04:14:59.275Z,99.99
2024-03-24T04:15:59.241Z,99.99
2024-03-24T04:16:59.221Z,99.99
2024-03-24T04:17:59.212Z,99.99
2024-03-24T04:18:59.225Z,99.99
2024-03-24T04:19:59.214Z,99.99
2024-03-24T04:20:59.174Z,99.99
2024-03-24T04:21:59.471Z,99.99
2024-03-24T04:22:59.166Z,99.99
2024-03-24T04:23:59.157Z,99.99
2024-03-24T04:24:59.141Z,99.99
2024-03-24T04:25:59.140Z,99.99
2024-03-24T04:27:01.619Z,99.99
2024-03-24T04:27:59.105Z,99.99
2024-03-24T04:28:59.122Z,99.99
2024-03-24T04:29:59.103Z,99.99
2024-03-24T04:30:59.072Z,99.99
2024-03-24T04:31:59.094Z,99.99
2024-03-24T04:32:59.065Z,99.99
2024-03-24T04:33:59.043Z,99.99
2024-03-24T04:34:59.089Z,99.99
2024-03-24T04:35:59.022Z,99.99
2024-03-24T04:36:59.006Z,99.99
2024-03-24T04:37:59.024Z,99.99
2024-03-24T04:38:58.987Z,99.99
2024-03-24T04:39:58.981Z,99.99
2024-03-24T04:40:59.071Z,99.99
2024-03-24T04:41:58.960Z,99.99
2024-03-24T04:42:58.944Z,99.99
2024-03-24T04:43:58.992Z,99.99
2024-03-24T04:44:59.109Z,99.99
2024-03-24T04:45:58.926Z,99.99
2024-03-24T04:46:58.906Z,99.99
2024-03-24T04:47:58.895Z,99.99
2024-03-24T04:48:58.880Z,99.99
2024-03-24T04:49:58.951Z,99.99
2024-03-24T04:50:58.859Z,99.99
2024-03-24T04:51:58.853Z,99.99
2024-03-24T04:52:58.891Z,99.99
2024-03-24T04:53:58.832Z,99.99
2024-03-24T04:54:58.851Z,99.99
2024-03-24T04:55:58.844Z,99.99
2024-03-24T04:56:58.803Z,99.99
2024-03-24T04:57:58.793Z,99.99
2024-03-24T04:58:58.780Z,99.99
2024-03-24T04:59:58.780Z,99.99
2024-03-24T05:00:58.788Z,99.99
2024-03-24T05:01:58.768Z,99.99
2024-03-24T05:02:58.737Z,99.99
2024-03-24T05:03:58.737Z,99.99
2024-03-24T05:04:58.709Z,99.99
2024-03-24T05:05:58.742Z,99.99
2024-03-24T05:06:58.729Z,99.99
2024-03-24T05:07:58.700Z,99.99
2024-03-24T05:08:58.682Z,99.99
2024-03-24T05:09:58.667Z,99.99
2024-03-24T05:10:58.651Z,99.99
2024-03-24T05:11:58.674Z,99.99
2024-03-24T05:12:58.632Z,99.99
2024-03-24T05:13:58.652Z,99.99
2024-03-24T05:14:58.615Z,99.99
2024-03-24T05:15:58.602Z,99.99
2024-03-24T05:16:58.590Z,99.99
2024-03-24T05:17:58.710Z,99.99
2024-03-24T05:18:58.574Z,99.99
2024-03-24T05:19:58.608Z,99.99
2024-03-24T05:20:58.569Z,99.99
2024-03-24T05:21:58.540Z,99.99
2024-03-24T05:22:58.643Z,99.99
2024-03-24T05:23:58.518Z,99.99
2024-03-24T05:24:58.507Z,99.99
2024-03-24T05:25:58.512Z,99.99
2024-03-24T05:26:58.487Z,99.99
2024-03-24T05:27:58.481Z,99.99
2024-03-24T05:28:58.585Z,99.99
2024-03-24T05:29:58.456Z,99.99
2024-03-24T05:30:58.465Z,99.99
2024-03-24T05:31:58.434Z,99.99
2024-03-24T05:32:58.429Z,99.99
2024-03-24T05:33:58.719Z,99.99
2024-03-24T05:34:58.400Z,99.99
2024-03-24T05:35:58.413Z,99.99
2024-03-24T05:36:58.463Z,99.99
2024-03-24T05:37:58.376Z,99.99
2024-03-24T05:38:58.364Z,99.99
2024-03-24T05:39:58.358Z,99.99
2024-03-24T05:40:58.349Z,99.99
2024-03-24T05:41:58.338Z,99.99
2024-03-24T05:42:58.782Z,99.99
2024-03-24T05:43:58.327Z,99.99
2024-03-24T05:44:58.307Z,99.99
2024-03-24T05:45:58.290Z,99.99
2024-03-24T05:46:58.309Z,99.99
2024-03-24T05:47:58.273Z,99.99
2024-03-24T05:48:58.273Z,99.99
2024-03-24T05:49:58.263Z,99.99
2024-03-24T05:50:58.287Z,99.99
2024-03-24T05:51:58.230Z,99.99
2024-03-24T05:52:58.233Z,99.99
2024-03-24T05:53:58.229Z,99.99
2024-03-24T05:54:58.205Z,99.99
2024-03-24T05:55:58.185Z,99.99
2024-03-24T05:56:58.181Z,99.99
2024-03-24T05:57:58.258Z,99.99
2024-03-24T05:58:58.149Z,99.99
2024-03-24T05:59:58.137Z,99.99
2024-03-24T06:00:58.145Z,99.99
2024-03-24T06:01:58.121Z,99.99
2024-03-24T06:02:58.143Z,99.99
2024-03-24T06:03:58.289Z,99.99
2024-03-24T06:04:58.088Z,99.99
2024-03-24T06:05:58.095Z,99.99
2024-03-24T06:06:58.265Z,99.99
2024-03-24T06:07:58.062Z,99.99
2024-03-24T06:08:58.062Z,99.99
2024-03-24T06:09:58.054Z,99.99
2024-03-24T06:10:58.033Z,99.99
2024-03-24T06:11:58.018Z,99.99
2024-03-24T06:12:58.019Z,99.99
2024-03-24T06:13:58.011Z,99.99
2024-03-24T06:14:58.146Z,99.99
2024-03-24T06:15:57.978Z,99.99
2024-03-24T06:16:57.962Z,99.99
2024-03-24T06:17:57.957Z,99.99
2024-03-24T06:18:57.955Z,99.99
2024-03-24T06:19:57.967Z,99.99
2024-03-24T06:20:58.188Z,99.99
2024-03-24T06:21:57.917Z,99.99
2024-03-24T06:22:57.899Z,99.99
2024-03-24T06:23:57.905Z,99.99
2024-03-24T06:24:57.900Z,99.99
2024-03-24T06:25:57.892Z,99.99
2024-03-24T06:26:57.871Z,99.99
2024-03-24T06:27:57.885Z,99.99
2024-03-24T06:28:57.837Z,99.99
2024-03-24T06:29:57.827Z,99.99
2024-03-24T06:30:57.835Z,99.99
2024-03-24T06:31:57.932Z,99.99
2024-03-24T06:32:57.793Z,99.99
2024-03-24T06:33:57.806Z,99.99
2024-03-24T06:34:57.772Z,99.99
2024-03-24T06:35:57.766Z,99.99
2024-03-24T06:36:57.903Z,99.99
2024-03-24T06:37:57.804Z,99.99
2024-03-24T06:38:57.730Z,99.99
2024-03-24T06:39:57.726Z,99.99
2024-03-24T06:40:57.729Z,99.99
2024-03-24T06:41:57.704Z,99.99
2024-03-24T06:42:57.703Z,99.99
2024-03-24T06:43:57.826Z,99.99
2024-03-24T06:44:57.725Z,99.99
2024-03-24T06:45:57.687Z,99.99
2024-03-24T06:46:57.646Z,99.99
2024-03-24T06:47:57.639Z,99.99
2024-03-24T06:48:57.646Z,99.99
2024-03-24T06:49:57.648Z,99.99
2024-03-24T06:50:57.608Z,99.99
2024-03-24T06:51:57.604Z,99.99
2024-03-24T06:52:57.584Z,99.99
2024-03-24T06:53:57.601Z,99.99
2024-03-24T06:54:57.583Z,99.99
2024-03-24T06:55:57.604Z,99.99
2024-03-24T06:56:57.565Z,99.99
2024-03-24T06:57:57.535Z,99.99
2024-03-24T06:58:57.520Z,99.99
2024-03-24T06:59:57.511Z,99.99
2024-03-24T07:00:57.551Z,99.99
2024-03-24T07:01:57.496Z,99.99
2024-03-24T07:02:57.484Z,99.99
2024-03-24T07:03:57.508Z,99.99
2024-03-24T07:04:57.460Z,99.99
2024-03-24T07:05:57.453Z,99.99
2024-03-24T07:06:57.481Z,99.99
2024-03-24T07:07:57.689Z,99.99
2024-03-24T07:08:57.419Z,99.99
2024-03-24T07:09:58.393Z,99.99
2024-03-24T07:10:57.398Z,99.99
2024-03-24T07:11:57.392Z,99.99
2024-03-24T07:12:57.425Z,99.99
2024-03-24T07:13:57.374Z,99.99
2024-03-24T07:14:57.362Z,99.99
2024-03-24T07:15:57.350Z,99.99
2024-03-24T07:16:57.334Z,99.99
2024-03-24T07:17:57.331Z,99.99
2024-03-24T07:18:57.455Z,99.99
2024-03-24T07:19:57.307Z,99.99
2024-03-24T07:20:57.295Z,99.99
2024-03-24T07:21:57.298Z,99.99
2024-03-24T07:22:57.414Z,99.99
2024-03-24T07:23:57.268Z,99.99
2024-03-24T07:24:57.276Z,99.99
2024-03-24T07:25:57.273Z,99.99
2024-03-24T07:26:57.250Z,99.99
2024-03-24T07:27:57.230Z,99.99
2024-03-24T07:28:57.228Z,99.99
2024-03-24T07:29:57.199Z,99.99
2024-03-24T07:30:57.352Z,99.99
2024-03-24T07:31:57.180Z,99.99
2024-03-24T07:32:57.181Z,99.99
2024-03-24T07:33:57.182Z,99.99
2024-03-24T07:34:57.145Z,99.99
2024-03-24T07:35:57.140Z,99.99
2024-03-24T07:36:57.142Z,99.99
2024-03-24T07:37:57.248Z,99.99
2024-03-24T07:38:57.109Z,99.99
2024-03-24T07:39:57.138Z,99.99
2024-03-24T07:40:57.287Z,99.99
2024-03-24T07:41:57.080Z,99.99
2024-03-24T07:42:57.065Z,99.99
2024-03-24T07:43:57.102Z,99.99
2024-03-24T07:44:57.043Z,99.99
2024-03-24T07:45:57.056Z,99.99
2024-03-24T07:46:57.016Z,99.99
2024-03-24T07:47:57.013Z,99.99
2024-03-24T07:48:57.112Z,99.99
2024-03-24T07:49:57.012Z,99.99
2024-03-24T07:50:57.234Z,99.99
2024-03-24T07:51:56.966Z,99.99
2024-03-24T07:52:57.993Z,99.99
2024-03-24T07:53:57.267Z,99.99
2024-03-24T07:54:56.961Z,99.99
2024-03-24T07:55:56.941Z,99.99
2024-03-24T07:56:56.933Z,99.99
2024-03-24T07:57:56.920Z,99.99
2024-03-24T07:58:56.931Z,99.99
2024-03-24T07:59:56.890Z,99.99
2024-03-24T08:00:56.880Z,99.99
2024-03-24T08:01:56.879Z,99.99
2024-03-24T08:02:56.855Z,99.99
2024-03-24T08:03:56.887Z,99.99
2024-03-24T08:04:57.145Z,99.99
2024-03-24T08:05:56.818Z,99.99
2024-03-24T08:06:56.815Z,99.99
2024-03-24T08:07:56.815Z,99.99
2024-03-24T08:08:56.790Z,99.99
2024-03-24T08:09:56.803Z,99.99
2024-03-24T08:10:56.799Z,99.99
2024-03-24T08:11:56.759Z,99.99
2024-03-24T08:12:56.745Z,99.99
2024-03-24T08:13:56.926Z,99.99
2024-03-24T08:14:56.726Z,99.99
2024-03-24T08:15:56.995Z,99.99
2024-03-24T08:16:56.723Z,99.99
2024-03-24T08:17:56.790Z,99.99
2024-03-24T08:18:56.683Z,99.99
2024-03-24T08:19:56.692Z,99.99
2024-03-24T08:20:57.951Z,99.99
2024-03-24T08:21:56.692Z,99.99
2024-03-24T08:22:56.645Z,99.99
2024-03-24T08:23:56.639Z,99.99
2024-03-24T08:24:56.627Z,99.99
2024-03-24T08:25:56.634Z,99.99
2024-03-24T08:26:56.601Z,99.99
2024-03-24T08:27:56.647Z,99.99
2024-03-24T08:28:56.579Z,99.99
2024-03-24T08:29:56.570Z,99.99
2024-03-24T08:30:56.558Z,99.99
2024-03-24T08:31:56.582Z,99.99
2024-03-24T08:32:56.569Z,99.99
2024-03-24T08:33:56.536Z,99.99
2024-03-24T08:34:56.521Z,99.99
2024-03-24T08:35:56.600Z,99.99
2024-03-24T08:36:56.518Z,99.99
2024-03-24T08:37:56.516Z,99.99
2024-03-24T08:38:56.470Z,99.99
2024-03-24T08:39:56.463Z,99.99
2024-03-24T08:40:56.451Z,99.99
2024-03-24T08:41:58.155Z,99.99
2024-03-24T08:42:56.464Z,99.99
2024-03-24T08:43:56.439Z,99.99
2024-03-24T08:44:56.454Z,99.99
2024-03-24T08:45:56.408Z,99.99
2024-03-24T08:46:56.417Z,99.99
2024-03-24T08:47:56.372Z,99.99
2024-03-24T08:48:56.368Z,99.77
2024-03-24T08:49:56.369Z,99.99
2024-03-24T08:50:56.345Z,99.77
2024-03-24T08:51:56.352Z,99.66
2024-03-24T08:52:56.515Z,99.99
2024-03-24T08:53:56.324Z,99.93
2024-03-24T08:54:56.300Z,99.99
2024-03-24T08:55:56.855Z,99.99
2024-03-24T08:56:56.328Z,99.99
2024-03-24T08:57:56.268Z,99.52
2024-03-24T08:58:56.261Z,99.99
2024-03-24T08:59:56.248Z,99.41
2024-03-24T09:00:56.235Z,99.37
2024-03-24T09:01:56.245Z,99.37
2024-03-24T09:02:56.470Z,99.47
2024-03-24T09:03:56.212Z,99.06
2024-03-24T09:04:56.226Z,99.26
2024-03-24T09:05:56.182Z,98.85
2024-03-24T09:06:56.189Z,99.06
2024-03-24T09:07:57.563Z,98.96
2024-03-24T09:08:56.152Z,98.75
2024-03-24T09:09:56.138Z,98.75
2024-03-24T09:10:56.138Z,99.26
2024-03-24T09:11:56.117Z,99.73
2024-03-24T09:12:56.141Z,99.52
2024-03-24T09:13:56.130Z,99.58
2024-03-24T09:14:56.088Z,99.69
2024-03-24T09:15:56.101Z,99.27
2024-03-24T09:16:56.363Z,99.17
2024-03-24T09:17:56.076Z,98.76
2024-03-24T09:18:56.175Z,98.61
2024-03-24T09:19:56.046Z,98.10
2024-03-24T09:20:56.028Z,98.30
2024-03-24T09:21:56.024Z,98.50
2024-03-24T09:22:56.093Z,97.89
2024-03-24T09:23:56.369Z,97.58
2024-03-24T09:24:55.983Z,97.48
2024-03-24T09:25:55.991Z,97.43
2024-03-24T09:26:55.960Z,97.33
2024-03-24T09:27:55.996Z,97.33
2024-03-24T09:28:55.939Z,97.02
2024-03-24T09:29:55.927Z,96.71
2024-03-24T09:30:55.953Z,96.09
2024-03-24T09:31:55.974Z,95.78
2024-03-24T09:32:55.898Z,96.09
2024-03-24T09:33:55.958Z,96.09
2024-03-24T09:34:58.896Z,95.17
2024-03-24T09:35:56.876Z,94.55
2024-03-24T09:36:55.855Z,94.18
2024-03-24T09:37:56.207Z,94.49
2024-03-24T09:38:55.839Z,94.28
2024-03-24T09:39:55.864Z,94.85
2024-03-24T09:40:55.812Z,94.55
2024-03-24T09:41:55.801Z,94.65
2024-03-24T09:42:55.804Z,93.62
2024-03-24T09:43:55.801Z,93.88
2024-03-24T09:44:55.790Z,93.48
2024-03-24T09:45:55.805Z,93.16
2024-03-24T09:46:55.787Z,93.01
2024-03-24T09:47:55.741Z,92.76
2024-03-24T09:48:56.094Z,92.86
2024-03-24T09:49:55.747Z,92.55
2024-03-24T09:50:55.894Z,92.86
2024-03-24T09:51:55.734Z,92.76
2024-03-24T09:52:55.687Z,92.44
2024-03-24T09:53:55.678Z,92.55
2024-03-24T09:54:55.672Z,91.68
2024-03-24T09:55:55.655Z,91.83
2024-03-24T09:56:55.914Z,91.21
2024-03-24T09:58:06.800Z,91.42
2024-03-24T09:58:56.633Z,91.42
2024-03-24T09:59:55.640Z,91.62
2024-03-24T10:00:55.603Z,91.72
2024-03-24T10:01:55.608Z,91.42
2024-03-24T10:02:55.584Z,91.62
2024-03-24T10:03:55.616Z,91.62
2024-03-24T10:04:55.570Z,91.62
2024-03-24T10:05:55.572Z,92.24
2024-03-24T10:06:55.541Z,91.72
2024-03-24T10:07:55.533Z,91.21
2024-03-24T10:08:55.533Z,91.62
2024-03-24T10:09:55.619Z,91.87
2024-03-24T10:10:55.787Z,91.87
2024-03-24T10:11:55.490Z,91.46
2024-03-24T10:12:55.482Z,91.87
2024-03-24T10:13:55.485Z,92.38
2024-03-24T10:14:55.475Z,92.02
2024-03-24T10:15:55.482Z,92.29
2024-03-24T10:16:55.440Z,92.18
2024-03-24T10:17:55.429Z,92.22
2024-03-24T10:18:55.429Z,92.90
2024-03-24T10:19:55.404Z,93.05
2024-03-24T10:20:55.443Z,93.01
2024-03-24T10:21:55.387Z,92.94
2024-03-24T10:22:55.375Z,93.35
2024-03-24T10:23:55.360Z,94.08
2024-03-24T10:24:55.355Z,93.77
2024-03-24T10:25:55.347Z,94.28
2024-03-24T10:26:55.501Z,95.00
2024-03-24T10:27:55.339Z,94.59
2024-03-24T10:28:55.366Z,94.59
2024-03-24T10:29:55.311Z,94.80
2024-03-24T10:30:55.304Z,94.38
2024-03-24T10:31:55.344Z,94.70
2024-03-24T10:32:55.319Z,94.59
2024-03-24T10:33:55.263Z,94.38
2024-03-24T10:34:55.246Z,95.10
2024-03-24T10:35:55.248Z,95.52
2024-03-24T10:36:55.321Z,96.03
2024-03-24T10:37:55.286Z,95.05
2024-03-24T10:38:55.223Z,95.05
2024-03-24T10:39:55.192Z,94.89
2024-03-24T10:40:55.263Z,95.71
2024-03-24T10:41:55.176Z,95.92
2024-03-24T10:42:55.168Z,95.61
2024-03-24T10:43:55.182Z,96.23
2024-03-24T10:44:55.138Z,95.81
2024-03-24T10:45:55.160Z,95.92
2024-03-24T10:46:55.138Z,95.61
2024-03-24T10:47:55.107Z,96.17
2024-03-24T10:48:55.094Z,95.92
2024-03-24T10:49:55.126Z,96.79
2024-03-24T10:50:55.079Z,96.33
2024-03-24T10:51:55.063Z,97.26
2024-03-24T10:52:56.899Z,96.89
2024-03-24T10:53:55.047Z,96.99
2024-03-24T10:54:55.031Z,97.56
2024-03-24T10:55:55.021Z,97.56
2024-03-24T10:56:55.050Z,97.30
2024-03-24T10:57:55.269Z,97.56
2024-03-24T10:58:54.997Z,97.88
2024-03-24T10:59:55.085Z,97.77
2024-03-24T11:00:54.967Z,97.98
2024-03-24T11:01:54.966Z,97.77
2024-03-24T11:02:54.952Z,98.70
2024-03-24T11:03:55.043Z,98.76
2024-03-24T11:04:55.210Z,98.19
2024-03-24T11:05:54.911Z,98.19
2024-03-24T11:06:54.904Z,98.76
2024-03-24T11:07:54.898Z,98.55
2024-03-24T11:08:54.883Z,98.86
2024-03-24T11:09:54.939Z,97.63
2024-03-24T11:10:54.866Z,98.35
2024-03-24T11:11:54.847Z,98.35
2024-03-24T11:12:54.857Z,98.24
2024-03-24T11:13:54.871Z,98.66
2024-03-24T11:14:54.816Z,98.14
2024-03-24T11:15:54.849Z,97.89
2024-03-24T11:16:54.791Z,97.27
2024-03-24T11:17:54.787Z,96.86
2024-03-24T11:18:56.964Z,96.96
2024-03-24T11:19:54.777Z,96.96
2024-03-24T11:20:54.752Z,97.17
2024-03-24T11:21:54.781Z,97.58
2024-03-24T11:22:54.791Z,97.48
2024-03-24T11:23:54.724Z,96.45
2024-03-24T11:24:54.713Z,96.91
2024-03-24T11:25:54.708Z,96.86
2024-03-24T11:26:54.695Z,97.17
2024-03-24T11:27:54.729Z,96.86
2024-03-24T11:28:54.689Z,96.45
2024-03-24T11:29:56.090Z,96.24
2024-03-24T11:30:54.666Z,95.73
2024-03-24T11:31:54.796Z,95.77
2024-03-24T11:32:54.653Z,95.15
2024-03-24T11:33:54.648Z,95.56
2024-03-24T11:34:54.642Z,95.67
2024-03-24T11:35:54.598Z,95.67
2024-03-24T11:36:54.580Z,95.77
2024-03-24T11:37:54.572Z,95.77
2024-03-24T11:38:54.706Z,96.03
2024-03-24T11:39:54.574Z,96.80
2024-03-24T11:40:54.554Z,96.34
2024-03-24T11:41:54.554Z,96.66
2024-03-24T11:42:54.681Z,96.55
2024-03-24T11:43:54.511Z,96.14
2024-03-24T11:44:54.513Z,95.93
2024-03-24T11:45:54.487Z,95.62
2024-03-24T11:46:54.509Z,95.62
2024-03-24T11:47:54.466Z,95.42
2024-03-24T11:48:54.481Z,95.62
2024-03-24T11:49:54.444Z,95.62
2024-03-24T11:50:54.441Z,95.52
2024-03-24T11:51:54.445Z,95.52
2024-03-24T11:52:54.427Z,95.62
2024-03-24T11:53:54.435Z,95.62
2024-03-24T11:54:54.453Z,95.67
2024-03-24T11:55:54.387Z,95.05
2024-03-24T11:56:54.580Z,95.42
2024-03-24T11:57:54.414Z,95.77
2024-03-24T11:58:54.403Z,95.77
2024-03-24T11:59:54.351Z,96.18
2024-03-24T12:00:54.331Z,95.67
2024-03-24T12:01:54.316Z,95.77
2024-03-24T12:02:54.339Z,95.87
2024-03-24T12:03:54.296Z,96.80
2024-03-24T12:04:54.318Z,96.95
2024-03-24T12:05:54.292Z,97.05
2024-03-24T12:06:54.267Z,97.05
2024-03-24T12:07:54.296Z,97.67
2024-03-24T12:08:54.247Z,97.47
2024-03-24T12:09:54.247Z,96.95
2024-03-24T12:10:54.240Z,97.67
2024-03-24T12:11:54.213Z,97.47
2024-03-24T12:12:54.212Z,97.26
2024-03-24T12:13:54.234Z,97.05
2024-03-24T12:14:54.194Z,97.67
2024-03-24T12:15:54.181Z,97.36
2024-03-24T12:16:54.180Z,97.47
2024-03-24T12:17:54.152Z,98.02
2024-03-24T12:18:54.249Z,97.92
2024-03-24T12:19:54.152Z,98.85
2024-03-24T12:20:54.117Z,98.13
2024-03-24T12:21:54.106Z,99.06
2024-03-24T12:22:54.123Z,98.08
2024-03-24T12:23:54.116Z,98.33
2024-03-24T12:24:54.078Z,98.19
2024-03-24T12:25:54.076Z,98.75
2024-03-24T12:26:54.068Z,98.91
2024-03-24T12:27:54.047Z,99.32
2024-03-24T12:28:54.073Z,98.80
2024-03-24T12:29:54.073Z,98.80
2024-03-24T12:30:54.039Z,99.32
2024-03-24T12:31:54.028Z,99.22
2024-03-24T12:32:53.991Z,99.63
2024-03-24T12:33:54.001Z,98.70
2024-03-24T12:34:55.756Z,98.80
2024-03-24T12:35:53.958Z,99.84
2024-03-24T12:36:53.975Z,99.01
2024-03-24T12:37:53.947Z,98.91
2024-03-24T12:38:53.923Z,99.84
2024-03-24T12:39:53.914Z,98.91
2024-03-24T12:40:55.462Z,99.43
2024-03-24T12:41:53.894Z,99.43
2024-03-24T12:42:53.885Z,99.27
2024-03-24T12:43:53.882Z,99.27
2024-03-24T12:44:53.866Z,99.48
2024-03-24T12:45:53.867Z,98.55
2024-03-24T12:46:54.035Z,99.38
2024-03-24T12:47:53.907Z,98.55
2024-03-24T12:48:53.844Z,98.97
2024-03-24T12:50:53.816Z,99.48
2024-03-24T12:51:53.804Z,98.82
2024-03-24T12:52:53.795Z,98.82